Current Conditions
Clear
Conditions



Pressure
1013.92 (hPa) - 29.94 (inHG)
Visibility

10.0 (km) - 6.2 (miles)
   Temperature
16  °C
61°F
14  °C
Dewpoint
88  %
 Humidity
   Wind Speed
10  km/h
5  kts
6  mph
2.7  m/s
   Wind Direction
 240°
West South
West
   Airport Data
LHPR
Location Győr-Pér International Airport 10 km (6.22 mi)
Metar :LHPR 181515Z AUTO 24005KT 190V290 CAVOK 16/14 Q1014 NOSIG
Sat 18th September 17:15 pm
   Raw Metar Info
Raw METAR is the most common format in the world for the transmission of observational weather data. It is highly standardized through the International Civil Aviation Organization (ICAO), which allows it to be understood throughout most of the world.
   API Info
Data Provided by
https://www.checkwx.com/weather/LHPR
   © Info
CSS/SVG/PHP scripts were developed by weather34.com for use in the weather34 template © 2015-2021

Guide Info provided by Metar-Wikipedia